sensor_id;sensor_type;location;lat;lon;timestamp;pressure;altitude;pressure_sealevel;temperature;humidity
65758;BME280;52495;52.208;5.158;2022-10-15T00:00:31;100693.47;;;12.30;93.97
65758;BME280;52495;52.208;5.158;2022-10-15T00:02:57;100675.41;;;12.28;94.39
65758;BME280;52495;52.208;5.158;2022-10-15T00:05:24;100679.66;;;12.31;94.02
65758;BME280;52495;52.208;5.158;2022-10-15T00:07:51;100678.75;;;12.32;94.36
65758;BME280;52495;52.208;5.158;2022-10-15T00:10:18;100687.34;;;12.33;94.51
65758;BME280;52495;52.208;5.158;2022-10-15T00:12:46;100680.41;;;12.35;94.67
65758;BME280;52495;52.208;5.158;2022-10-15T00:15:12;100677.81;;;12.35;95.10
65758;BME280;52495;52.208;5.158;2022-10-15T00:17:40;100676.91;;;12.37;94.93
65758;BME280;52495;52.208;5.158;2022-10-15T00:20:07;100684.63;;;12.39;95.41
65758;BME280;52495;52.208;5.158;2022-10-15T00:22:35;100682.84;;;12.41;95.30
65758;BME280;52495;52.208;5.158;2022-10-15T00:25:02;100682.78;;;12.42;95.51
65758;BME280;52495;52.208;5.158;2022-10-15T00:27:29;100682.75;;;12.44;95.74
65758;BME280;52495;52.208;5.158;2022-10-15T00:29:57;100681.81;;;12.47;95.83
65758;BME280;52495;52.208;5.158;2022-10-15T00:32:24;100678.34;;;12.48;95.90
65758;BME280;52495;52.208;5.158;2022-10-15T00:34:51;100672.25;;;12.49;96.18
65758;BME280;52495;52.208;5.158;2022-10-15T00:37:18;100679.09;;;12.51;96.25
65758;BME280;52495;52.208;5.158;2022-10-15T00:39:45;100674.72;;;12.53;96.47
65758;BME280;52495;52.208;5.158;2022-10-15T00:42:12;100670.34;;;12.55;95.48
65758;BME280;52495;52.208;5.158;2022-10-15T00:44:46;100674.69;;;12.55;96.29
65758;BME280;52495;52.208;5.158;2022-10-15T00:47:16;100678.13;;;12.55;96.50
65758;BME280;52495;52.208;5.158;2022-10-15T00:49:43;100671.19;;;12.56;96.86
65758;BME280;52495;52.208;5.158;2022-10-15T00:52:15;100664.22;;;12.58;96.92
65758;BME280;52495;52.208;5.158;2022-10-15T00:54:43;100661.63;;;12.58;96.73
65758;BME280;52495;52.208;5.158;2022-10-15T00:57:13;100666.00;;;12.56;96.77
65758;BME280;52495;52.208;5.158;2022-10-15T00:59:41;100668.59;;;12.56;96.63
65758;BME280;52495;52.208;5.158;2022-10-15T01:02:08;100660.88;;;12.54;96.73
65758;BME280;52495;52.208;5.158;2022-10-15T01:04:37;100660.81;;;12.56;96.83
65758;BME280;52495;52.208;5.158;2022-10-15T01:07:06;100672.06;;;12.56;96.83
65758;BME280;52495;52.208;5.158;2022-10-15T01:09:36;100660.88;;;12.54;96.81
65758;BME280;52495;52.208;5.158;2022-10-15T01:12:03;100665.16;;;12.55;96.67
65758;BME280;52495;52.208;5.158;2022-10-15T01:14:35;100654.00;;;12.53;96.54
65758;BME280;52495;52.208;5.158;2022-10-15T01:17:06;100655.78;;;12.51;96.43
65758;BME280;52495;52.208;5.158;2022-10-15T01:19:43;100656.66;;;12.50;96.63
65758;BME280;52495;52.208;5.158;2022-10-15T01:22:14;100661.84;;;12.50;96.30
65758;BME280;52495;52.208;5.158;2022-10-15T01:27:31;100661.09;;;12.47;96.51
65758;BME280;52495;52.208;5.158;2022-10-15T01:35:36;100650.88;;;12.42;96.64
65758;BME280;52495;52.208;5.158;2022-10-15T01:38:07;100644.00;;;12.41;96.24
65758;BME280;52495;52.208;5.158;2022-10-15T01:40:35;100644.84;;;12.41;96.45
65758;BME280;52495;52.208;5.158;2022-10-15T01:43:08;100642.31;;;12.40;96.29
65758;BME280;52495;52.208;5.158;2022-10-15T01:46:13;100645.72;;;12.40;96.36
65758;BME280;52495;52.208;5.158;2022-10-15T01:48:58;100648.31;;;12.40;96.65
65758;BME280;52495;52.208;5.158;2022-10-15T01:51:29;100638.91;;;12.38;96.63
65758;BME280;52495;52.208;5.158;2022-10-15T01:53:58;100638.00;;;12.39;96.60
65758;BME280;52495;52.208;5.158;2022-10-15T01:56:25;100628.50;;;12.39;96.61
65758;BME280;52495;52.208;5.158;2022-10-15T01:58:52;100627.59;;;12.40;97.00
65758;BME280;52495;52.208;5.158;2022-10-15T02:01:20;100621.59;;;12.40;97.01
65758;BME280;52495;52.208;5.158;2022-10-15T02:03:48;100621.53;;;12.41;97.28
65758;BME280;52495;52.208;5.158;2022-10-15T02:06:16;100618.06;;;12.42;97.26
65758;BME280;52495;52.208;5.158;2022-10-15T02:08:47;100620.63;;;12.44;97.81
65758;BME280;52495;52.208;5.158;2022-10-15T02:11:18;100617.13;;;12.45;97.91
65758;BME280;52495;52.208;5.158;2022-10-15T02:13:47;100610.19;;;12.45;98.11
65758;BME280;52495;52.208;5.158;2022-10-15T02:16:18;100607.56;;;12.47;98.30
65758;BME280;52495;52.208;5.158;2022-10-15T02:18:50;100599.78;;;12.47;98.19
65758;BME280;52495;52.208;5.158;2022-10-15T02:21:25;100598.88;;;12.50;98.29
65758;BME280;52495;52.208;5.158;2022-10-15T02:23:57;100596.22;;;12.51;98.66
65758;BME280;52495;52.208;5.158;2022-10-15T02:26:28;100600.50;;;12.52;98.67
65758;BME280;52495;52.208;5.158;2022-10-15T02:28:56;100600.47;;;12.54;98.80
65758;BME280;52495;52.208;5.158;2022-10-15T02:31:24;100595.25;;;12.55;98.80
65758;BME280;52495;52.208;5.158;2022-10-15T02:33:53;100595.19;;;12.57;98.93
65758;BME280;52495;52.208;5.158;2022-10-15T02:36:21;100587.41;;;12.58;99.05
65758;BME280;52495;52.208;5.158;2022-10-15T02:38:48;100590.78;;;12.60;99.24
65758;BME280;52495;52.208;5.158;2022-10-15T02:41:17;100590.72;;;12.62;99.07
65758;BME280;52495;52.208;5.158;2022-10-15T02:43:45;100590.78;;;12.60;99.08
65758;BME280;52495;52.208;5.158;2022-10-15T02:46:13;100591.59;;;12.63;99.07
65758;BME280;52495;52.208;5.158;2022-10-15T02:48:42;100594.19;;;12.63;99.53
65758;BME280;52495;52.208;5.158;2022-10-15T02:51:09;100592.44;;;12.63;99.56
65758;BME280;52495;52.208;5.158;2022-10-15T02:53:36;100583.81;;;12.63;99.03
65758;BME280;52495;52.208;5.158;2022-10-15T02:56:03;100582.94;;;12.64;99.19
65758;BME280;52495;52.208;5.158;2022-10-15T02:58:31;100576.88;;;12.63;99.21
65758;BME280;52495;52.208;5.158;2022-10-15T03:00:58;100574.31;;;12.63;98.66
65758;BME280;52495;52.208;5.158;2022-10-15T03:03:26;100575.25;;;12.60;98.46
65758;BME280;52495;52.208;5.158;2022-10-15T03:05:55;100564.09;;;12.58;98.29
65758;BME280;52495;52.208;5.158;2022-10-15T03:08:22;100563.28;;;12.56;98.22
65758;BME280;52495;52.208;5.158;2022-10-15T03:10:49;100565.97;;;12.53;97.71
65758;BME280;52495;52.208;5.158;2022-10-15T03:13:15;100561.75;;;12.49;97.33
65758;BME280;52495;52.208;5.158;2022-10-15T03:15:48;100560.13;;;12.47;97.20
65758;BME280;52495;52.208;5.158;2022-10-15T03:18:15;100552.41;;;12.45;97.50
65758;BME280;52495;52.208;5.158;2022-10-15T03:20:41;100551.59;;;12.43;97.35
65758;BME280;52495;52.208;5.158;2022-10-15T03:23:08;100549.03;;;12.41;97.55
65758;BME280;52495;52.208;5.158;2022-10-15T03:25:35;100553.38;;;12.41;97.31
65758;BME280;52495;52.208;5.158;2022-10-15T03:28:03;100556.00;;;12.39;97.57
65758;BME280;52495;52.208;5.158;2022-10-15T03:30:35;100556.13;;;12.36;97.20
65758;BME280;52495;52.208;5.158;2022-10-15T03:33:03;100551.03;;;12.33;97.12
65758;BME280;52495;52.208;5.158;2022-10-15T03:35:31;100549.34;;;12.30;96.85
65758;BME280;52495;52.208;5.158;2022-10-15T03:37:57;100547.75;;;12.26;96.70
65758;BME280;52495;52.208;5.158;2022-10-15T03:40:24;100547.84;;;12.23;96.71
65758;BME280;52495;52.208;5.158;2022-10-15T03:42:54;100550.47;;;12.22;96.67
65758;BME280;52495;52.208;5.158;2022-10-15T03:45:23;100540.22;;;12.19;96.67
65758;BME280;52495;52.208;5.158;2022-10-15T03:48:04;100543.72;;;12.16;97.08
65758;BME280;52495;52.208;5.158;2022-10-15T03:50:32;100545.50;;;12.14;96.89
65758;BME280;52495;52.208;5.158;2022-10-15T03:53:01;100542.13;;;12.12;97.08
65758;BME280;52495;52.208;5.158;2022-10-15T03:55:28;100543.94;;;12.08;97.13
65758;BME280;52495;52.208;5.158;2022-10-15T03:57:55;100537.06;;;12.09;97.22
65758;BME280;52495;52.208;5.158;2022-10-15T04:00:21;100542.25;;;12.07;97.32
65758;BME280;52495;52.208;5.158;2022-10-15T04:02:52;100543.19;;;12.05;97.37
65758;BME280;52495;52.208;5.158;2022-10-15T04:05:25;100544.88;;;12.06;97.50
65758;BME280;52495;52.208;5.158;2022-10-15T04:07:57;100550.97;;;12.05;97.75
65758;BME280;52495;52.208;5.158;2022-10-15T04:10:25;100548.50;;;12.00;97.50
65758;BME280;52495;52.208;5.158;2022-10-15T04:12:52;100554.44;;;12.04;97.77
65758;BME280;52495;52.208;5.158;2022-10-15T04:15:19;100564.78;;;12.04;97.78
65758;BME280;52495;52.208;5.158;2022-10-15T04:17:55;100562.25;;;12.02;97.69
65758;BME280;52495;52.208;5.158;2022-10-15T04:20:26;100565.72;;;12.01;97.62
65758;BME280;52495;52.208;5.158;2022-10-15T04:22:53;100564.88;;;12.01;97.95
65758;BME280;52495;52.208;5.158;2022-10-15T04:25:19;100563.13;;;12.01;98.17
65758;BME280;52495;52.208;5.158;2022-10-15T04:27:46;100560.56;;;12.01;97.94
65758;BME280;52495;52.208;5.158;2022-10-15T04:30:16;100566.56;;;12.02;98.46
65758;BME280;52495;52.208;5.158;2022-10-15T04:32:55;100568.25;;;12.03;98.70
65758;BME280;52495;52.208;5.158;2022-10-15T04:35:22;100566.53;;;12.03;98.97
65758;BME280;52495;52.208;5.158;2022-10-15T04:38:18;100569.97;;;12.04;98.85
65758;BME280;52495;52.208;5.158;2022-10-15T04:40:58;100574.31;;;12.03;98.83
65758;BME280;52495;52.208;5.158;2022-10-15T04:43:32;100568.19;;;12.06;98.79
65758;BME280;52495;52.208;5.158;2022-10-15T04:46:04;100575.94;;;12.06;99.11
65758;BME280;52495;52.208;5.158;2022-10-15T04:48:31;100568.94;;;12.09;99.31
65758;BME280;52495;52.208;5.158;2022-10-15T04:51:01;100565.44;;;12.12;99.74
65758;BME280;52495;52.208;5.158;2022-10-15T04:53:40;100574.84;;;12.14;99.77
65758;BME280;52495;52.208;5.158;2022-10-15T04:56:09;100563.53;;;12.17;100.00
65758;BME280;52495;52.208;5.158;2022-10-15T04:58:36;100569.50;;;12.21;100.00
65758;BME280;52495;52.208;5.158;2022-10-15T05:01:05;100572.84;;;12.24;100.00
65758;BME280;52495;52.208;5.158;2022-10-15T05:03:42;100574.47;;;12.28;100.00
65758;BME280;52495;52.208;5.158;2022-10-15T05:06:10;100564.00;;;12.32;100.00
65758;BME280;52495;52.208;5.158;2022-10-15T05:08:37;100568.25;;;12.34;100.00
65758;BME280;52495;52.208;5.158;2022-10-15T05:11:24;100570.69;;;12.39;100.00
65758;BME280;52495;52.208;5.158;2022-10-15T05:13:51;100569.75;;;12.41;100.00
65758;BME280;52495;52.208;5.158;2022-10-15T05:16:20;100563.66;;;12.44;100.00
65758;BME280;52495;52.208;5.158;2022-10-15T05:18:47;100555.81;;;12.45;100.00
65758;BME280;52495;52.208;5.158;2022-10-15T05:21:15;100555.75;;;12.49;100.00
65758;BME280;52495;52.208;5.158;2022-10-15T05:23:44;100564.31;;;12.51;100.00
65758;BME280;52495;52.208;5.158;2022-10-15T05:26:36;100559.06;;;12.54;100.00
65758;BME280;52495;52.208;5.158;2022-10-15T05:29:02;100559.81;;;12.56;100.00
65758;BME280;52495;52.208;5.158;2022-10-15T05:31:31;100556.34;;;12.57;100.00
65758;BME280;52495;52.208;5.158;2022-10-15T05:34:07;100555.44;;;12.58;100.00
65758;BME280;52495;52.208;5.158;2022-10-15T05:36:49;100551.94;;;12.60;100.00
65758;BME280;52495;52.208;5.158;2022-10-15T05:39:15;100544.97;;;12.63;100.00
65758;BME280;52495;52.208;5.158;2022-10-15T05:41:45;100546.63;;;12.65;100.00
65758;BME280;52495;52.208;5.158;2022-10-15T05:44:12;100550.00;;;12.67;100.00
65758;BME280;52495;52.208;5.158;2022-10-15T05:46:39;100541.38;;;12.67;100.00
65758;BME280;52495;52.208;5.158;2022-10-15T05:49:05;100543.94;;;12.68;100.00
65758;BME280;52495;52.208;5.158;2022-10-15T05:51:44;100547.34;;;12.69;100.00
65758;BME280;52495;52.208;5.158;2022-10-15T05:54:17;100548.09;;;12.72;100.00
65758;BME280;52495;52.208;5.158;2022-10-15T05:56:45;100547.22;;;12.73;100.00
65758;BME280;52495;52.208;5.158;2022-10-15T05:59:12;100545.50;;;12.72;100.00
65758;BME280;52495;52.208;5.158;2022-10-15T06:01:38;100542.84;;;12.75;100.00
65758;BME280;52495;52.208;5.158;2022-10-15T06:04:05;100544.53;;;12.77;100.00
65758;BME280;52495;52.208;5.158;2022-10-15T06:06:33;100545.41;;;12.77;100.00
65758;BME280;52495;52.208;5.158;2022-10-15T06:08:59;100548.91;;;12.74;100.00
65758;BME280;52495;52.208;5.158;2022-10-15T06:11:34;100546.31;;;12.74;100.00
65758;BME280;52495;52.208;5.158;2022-10-15T06:14:02;100555.03;;;12.72;100.00
65758;BME280;52495;52.208;5.158;2022-10-15T06:16:32;100549.03;;;12.71;100.00
65758;BME280;52495;52.208;5.158;2022-10-15T06:18:58;100548.09;;;12.72;100.00
65758;BME280;52495;52.208;5.158;2022-10-15T06:21:25;100541.19;;;12.73;100.00
65758;BME280;52495;52.208;5.158;2022-10-15T06:23:52;100542.16;;;12.70;100.00
65758;BME280;52495;52.208;5.158;2022-10-15T06:26:19;100554.97;;;12.73;100.00
65758;BME280;52495;52.208;5.158;2022-10-15T06:28:46;100542.88;;;12.74;100.00
65758;BME280;52495;52.208;5.158;2022-10-15T06:31:17;100550.66;;;12.74;100.00
65758;BME280;52495;52.208;5.158;2022-10-15T06:33:43;100549.78;;;12.73;100.00
65758;BME280;52495;52.208;5.158;2022-10-15T06:36:10;100544.69;;;12.72;100.00
65758;BME280;52495;52.208;5.158;2022-10-15T06:38:38;100547.19;;;12.75;100.00
65758;BME280;52495;52.208;5.158;2022-10-15T06:41:05;100545.41;;;12.77;100.00
65758;BME280;52495;52.208;5.158;2022-10-15T06:43:32;100545.41;;;12.75;100.00
65758;BME280;52495;52.208;5.158;2022-10-15T06:45:58;100541.03;;;12.78;100.00
65758;BME280;52495;52.208;5.158;2022-10-15T06:48:26;100545.41;;;12.77;100.00
65758;BME280;52495;52.208;5.158;2022-10-15T06:50:53;100545.34;;;12.79;100.00
65758;BME280;52495;52.208;5.158;2022-10-15T06:53:19;100539.25;;;12.80;100.00
65758;BME280;52495;52.208;5.158;2022-10-15T06:55:47;100543.59;;;12.79;100.00
65758;BME280;52495;52.208;5.158;2022-10-15T06:58:13;100548.78;;;12.79;100.00
65758;BME280;52495;52.208;5.158;2022-10-15T07:00:40;100544.34;;;12.83;100.00
65758;BME280;52495;52.208;5.158;2022-10-15T07:03:06;100546.88;;;12.84;100.00
65758;BME280;52495;52.208;5.158;2022-10-15T07:05:37;100533.84;;;12.87;100.00
65758;BME280;52495;52.208;5.158;2022-10-15T07:08:04;100543.25;;;12.90;100.00
65758;BME280;52495;52.208;5.158;2022-10-15T07:10:30;100535.44;;;12.92;100.00
65758;BME280;52495;52.208;5.158;2022-10-15T07:12:58;100548.31;;;12.95;100.00
65758;BME280;52495;52.208;5.158;2022-10-15T07:15:24;100550.91;;;12.95;100.00
65758;BME280;52495;52.208;5.158;2022-10-15T07:17:52;100550.81;;;12.96;100.00
65758;BME280;52495;52.208;5.158;2022-10-15T07:20:25;100554.22;;;12.98;100.00
65758;BME280;52495;52.208;5.158;2022-10-15T07:22:56;100558.50;;;12.99;100.00
65758;BME280;52495;52.208;5.158;2022-10-15T07:25:27;100565.19;;;13.06;100.00
65758;BME280;52495;52.208;5.158;2022-10-15T07:27:54;100561.75;;;13.06;100.00
65758;BME280;52495;52.208;5.158;2022-10-15T07:30:21;100560.84;;;13.07;100.00
65758;BME280;52495;52.208;5.158;2022-10-15T07:32:50;100561.66;;;13.09;100.00
65758;BME280;52495;52.208;5.158;2022-10-15T07:35:16;100551.28;;;13.09;100.00
65758;BME280;52495;52.208;5.158;2022-10-15T07:37:43;100549.50;;;13.11;100.00
65758;BME280;52495;52.208;5.158;2022-10-15T07:40:13;100553.72;;;13.14;100.00
65758;BME280;52495;52.208;5.158;2022-10-15T07:42:40;100546.69;;;13.17;100.00
65758;BME280;52495;52.208;5.158;2022-10-15T07:45:07;100541.47;;;13.19;100.00
65758;BME280;52495;52.208;5.158;2022-10-15T07:47:33;100545.69;;;13.21;100.00
65758;BME280;52495;52.208;5.158;2022-10-15T07:50:00;100547.31;;;13.24;100.00
65758;BME280;52495;52.208;5.158;2022-10-15T07:52:26;100548.94;;;13.28;100.00
65758;BME280;52495;52.208;5.158;2022-10-15T07:54:53;100543.59;;;13.33;100.00
65758;BME280;52495;52.208;5.158;2022-10-15T07:57:24;100540.16;;;13.32;100.00
65758;BME280;52495;52.208;5.158;2022-10-15T07:59:51;100527.94;;;13.36;100.00
65758;BME280;52495;52.208;5.158;2022-10-15T08:02:18;100518.34;;;13.38;100.00
65758;BME280;52495;52.208;5.158;2022-10-15T08:04:44;100521.78;;;13.40;100.00
65758;BME280;52495;52.208;5.158;2022-10-15T08:07:11;100518.22;;;13.43;100.00
65758;BME280;52495;52.208;5.158;2022-10-15T08:09:37;100509.59;;;13.42;100.00
65758;BME280;52495;52.208;5.158;2022-10-15T08:12:04;100503.44;;;13.46;100.00
65758;BME280;52495;52.208;5.158;2022-10-15T08:14:32;100499.88;;;13.49;100.00
65758;BME280;52495;52.208;5.158;2022-10-15T08:17:00;100509.50;;;13.45;100.00
65758;BME280;52495;52.208;5.158;2022-10-15T08:19:26;100514.69;;;13.45;100.00
65758;BME280;52495;52.208;5.158;2022-10-15T08:21:53;100518.09;;;13.47;100.00
65758;BME280;52495;52.208;5.158;2022-10-15T08:24:19;100521.50;;;13.48;100.00
65758;BME280;52495;52.208;5.158;2022-10-15T08:26:46;100520.53;;;13.50;100.00
65758;BME280;52495;52.208;5.158;2022-10-15T08:29:13;100518.72;;;13.54;100.00
65758;BME280;52495;52.208;5.158;2022-10-15T08:31:41;100517.84;;;13.54;100.00
65758;BME280;52495;52.208;5.158;2022-10-15T08:34:08;100509.97;;;13.57;100.00
65758;BME280;52495;52.208;5.158;2022-10-15T08:36:34;100504.69;;;13.60;100.00
65758;BME280;52495;52.208;5.158;2022-10-15T08:39:01;100507.84;;;13.68;100.00
65758;BME280;52495;52.208;5.158;2022-10-15T08:41:31;100499.22;;;13.68;100.00
65758;BME280;52495;52.208;5.158;2022-10-15T08:44:04;100497.41;;;13.70;100.00
65758;BME280;52495;52.208;5.158;2022-10-15T08:46:33;100498.88;;;13.77;100.00
65758;BME280;52495;52.208;5.158;2022-10-15T08:49:03;100495.09;;;13.86;100.00
65758;BME280;52495;52.208;5.158;2022-10-15T08:51:36;100493.91;;;13.94;100.00
65758;BME280;52495;52.208;5.158;2022-10-15T08:54:05;100490.88;;;14.07;100.00
65758;BME280;52495;52.208;5.158;2022-10-15T08:56:36;100487.94;;;14.16;100.00
65758;BME280;52495;52.208;5.158;2022-10-15T08:59:07;100489.44;;;14.22;100.00
65758;BME280;52495;52.208;5.158;2022-10-15T09:01:40;100479.72;;;14.27;100.00
65758;BME280;52495;52.208;5.158;2022-10-15T09:04:13;100475.25;;;14.31;100.00
65758;BME280;52495;52.208;5.158;2022-10-15T09:06:42;100478.41;;;14.39;100.00
65758;BME280;52495;52.208;5.158;2022-10-15T09:09:11;100473.88;;;14.44;100.00
65758;BME280;52495;52.208;5.158;2022-10-15T09:11:44;100485.91;;;14.47;100.00
65758;BME280;52495;52.208;5.158;2022-10-15T09:14:13;100484.81;;;14.52;100.00
65758;BME280;52495;52.208;5.158;2022-10-15T09:16:41;100478.75;;;14.52;99.32
65758;BME280;52495;52.208;5.158;2022-10-15T09:19:11;100480.44;;;14.53;99.18
65758;BME280;52495;52.208;5.158;2022-10-15T09:21:40;100482.09;;;14.55;99.10
65758;BME280;52495;52.208;5.158;2022-10-15T09:24:08;100482.75;;;14.61;99.30
65758;BME280;52495;52.208;5.158;2022-10-15T09:26:37;100474.13;;;14.60;98.72
65758;BME280;52495;52.208;5.158;2022-10-15T09:29:13;100477.44;;;14.64;98.45
65758;BME280;52495;52.208;5.158;2022-10-15T09:31:43;100471.41;;;14.63;97.80
65758;BME280;52495;52.208;5.158;2022-10-15T09:34:13;100474.78;;;14.65;98.01
65758;BME280;52495;52.208;5.158;2022-10-15T09:36:45;100473.75;;;14.69;98.06
65758;BME280;52495;52.208;5.158;2022-10-15T09:39:21;100470.94;;;14.76;98.30
65758;BME280;52495;52.208;5.158;2022-10-15T09:41:55;100477.03;;;14.75;97.34
65758;BME280;52495;52.208;5.158;2022-10-15T09:44:27;100472.03;;;14.70;96.43
65758;BME280;52495;52.208;5.158;2022-10-15T09:46:57;100468.56;;;14.69;96.51
65758;BME280;52495;52.208;5.158;2022-10-15T09:49:24;100457.22;;;14.72;96.52
65758;BME280;52495;52.208;5.158;2022-10-15T09:51:56;100443.44;;;14.70;96.45
65758;BME280;52495;52.208;5.158;2022-10-15T09:54:26;100452.06;;;14.70;96.74
65758;BME280;52495;52.208;5.158;2022-10-15T09:56:55;100453.94;;;14.67;96.59
65758;BME280;52495;52.208;5.158;2022-10-15T09:59:23;100447.84;;;14.68;97.33
65758;BME280;52495;52.208;5.158;2022-10-15T10:01:57;100446.94;;;14.69;97.70
65758;BME280;52495;52.208;5.158;2022-10-15T10:04:25;100451.13;;;14.73;97.99
65758;BME280;52495;52.208;5.158;2022-10-15T10:06:52;100442.41;;;14.74;98.44
65758;BME280;52495;52.208;5.158;2022-10-15T10:09:22;100444.13;;;14.75;98.58
65758;BME280;52495;52.208;5.158;2022-10-15T10:11:50;100437.09;;;14.77;98.91
65758;BME280;52495;52.208;5.158;2022-10-15T10:14:21;100428.31;;;14.80;98.97
65758;BME280;52495;52.208;5.158;2022-10-15T10:17:03;100427.34;;;14.82;99.28
65758;BME280;52495;52.208;5.158;2022-10-15T10:19:29;100431.50;;;14.86;99.96
65758;BME280;52495;52.208;5.158;2022-10-15T10:22:04;100430.47;;;14.91;100.00
65758;BME280;52495;52.208;5.158;2022-10-15T10:24:32;100429.50;;;14.93;100.00
65758;BME280;52495;52.208;5.158;2022-10-15T10:26:59;100430.16;;;14.98;100.00
65758;BME280;52495;52.208;5.158;2022-10-15T10:29:26;100430.84;;;15.02;100.00
65758;BME280;52495;52.208;5.158;2022-10-15T10:31:54;100423.91;;;15.02;100.00
65758;BME280;52495;52.208;5.158;2022-10-15T10:34:32;100428.97;;;15.06;100.00
65758;BME280;52495;52.208;5.158;2022-10-15T10:37:01;100424.63;;;15.06;100.00
65758;BME280;52495;52.208;5.158;2022-10-15T10:39:28;100421.03;;;15.09;100.00
65758;BME280;52495;52.208;5.158;2022-10-15T10:41:58;100423.59;;;15.10;100.00
65758;BME280;52495;52.208;5.158;2022-10-15T10:44:30;100431.44;;;15.09;100.00
65758;BME280;52495;52.208;5.158;2022-10-15T10:47:00;100427.94;;;15.10;100.00
65758;BME280;52495;52.208;5.158;2022-10-15T10:49:31;100428.72;;;15.12;100.00
65758;BME280;52495;52.208;5.158;2022-10-15T10:51:58;100422.72;;;15.10;100.00
65758;BME280;52495;52.208;5.158;2022-10-15T10:54:24;100418.41;;;15.10;100.00
65758;BME280;52495;52.208;5.158;2022-10-15T10:56:52;100418.53;;;15.07;100.00
65758;BME280;52495;52.208;5.158;2022-10-15T10:59:22;100419.34;;;15.08;100.00
65758;BME280;52495;52.208;5.158;2022-10-15T11:01:50;100414.28;;;15.05;100.00
65758;BME280;52495;52.208;5.158;2022-10-15T11:04:18;100409.16;;;15.03;100.00
65758;BME280;52495;52.208;5.158;2022-10-15T11:06:55;100410.06;;;15.02;100.00
65758;BME280;52495;52.208;5.158;2022-10-15T11:09:29;100410.97;;;15.01;100.00
65758;BME280;52495;52.208;5.158;2022-10-15T11:12:04;100404.94;;;15.00;100.00
65758;BME280;52495;52.208;5.158;2022-10-15T11:14:37;100406.63;;;15.01;100.00
65758;BME280;52495;52.208;5.158;2022-10-15T11:17:13;100403.03;;;15.04;100.00
65758;BME280;52495;52.208;5.158;2022-10-15T11:19:43;100396.94;;;15.05;100.00
65758;BME280;52495;52.208;5.158;2022-10-15T11:22:19;100389.13;;;15.05;100.00
65758;BME280;52495;52.208;5.158;2022-10-15T11:24:53;100389.13;;;15.05;100.00
65758;BME280;52495;52.208;5.158;2022-10-15T11:27:27;100393.34;;;15.08;100.00
65758;BME280;52495;52.208;5.158;2022-10-15T11:30:01;100389.63;;;15.13;100.00
65758;BME280;52495;52.208;5.158;2022-10-15T11:32:41;100381.78;;;15.15;100.00
65758;BME280;52495;52.208;5.158;2022-10-15T11:35:20;100386.91;;;15.16;100.00
65758;BME280;52495;52.208;5.158;2022-10-15T11:37:59;100385.94;;;15.19;100.00
65758;BME280;52495;52.208;5.158;2022-10-15T11:40:30;100386.66;;;15.23;100.00
65758;BME280;52495;52.208;5.158;2022-10-15T11:43:00;100383.13;;;15.24;100.00
65758;BME280;52495;52.208;5.158;2022-10-15T11:48:24;100382.22;;;15.25;100.00
65758;BME280;52495;52.208;5.158;2022-10-15T11:50:56;100372.72;;;15.24;100.00
65758;BME280;52495;52.208;5.158;2022-10-15T11:53:44;100370.91;;;15.26;100.00
65758;BME280;52495;52.208;5.158;2022-10-15T11:56:17;100373.44;;;15.27;100.00
65758;BME280;52495;52.208;5.158;2022-10-15T11:58:48;100372.59;;;15.27;100.00
65758;BME280;52495;52.208;5.158;2022-10-15T12:01:17;100363.03;;;15.27;100.00
65758;BME280;52495;52.208;5.158;2022-10-15T12:03:48;100369.00;;;15.29;100.00
65758;BME280;52495;52.208;5.158;2022-10-15T12:06:16;100370.00;;;15.27;100.00
65758;BME280;52495;52.208;5.158;2022-10-15T12:08:44;100370.63;;;15.32;100.00
65758;BME280;52495;52.208;5.158;2022-10-15T12:11:18;100372.38;;;15.31;100.00
65758;BME280;52495;52.208;5.158;2022-10-15T12:13:47;100370.56;;;15.33;100.00
65758;BME280;52495;52.208;5.158;2022-10-15T12:16:20;100373.09;;;15.35;100.00
65758;BME280;52495;52.208;5.158;2022-10-15T12:18:53;100381.75;;;15.36;100.00
65758;BME280;52495;52.208;5.158;2022-10-15T12:21:31;100371.25;;;15.37;100.00
65758;BME280;52495;52.208;5.158;2022-10-15T12:23:58;100369.50;;;15.38;100.00
65758;BME280;52495;52.208;5.158;2022-10-15T12:26:26;100376.38;;;15.39;100.00
65758;BME280;52495;52.208;5.158;2022-10-15T12:28:54;100369.34;;;15.41;100.00
65758;BME280;52495;52.208;5.158;2022-10-15T12:31:22;100372.03;;;15.39;100.00
65758;BME280;52495;52.208;5.158;2022-10-15T12:33:50;100367.63;;;15.41;100.00
65758;BME280;52495;52.208;5.158;2022-10-15T12:36:22;100377.25;;;15.39;100.00
65758;BME280;52495;52.208;5.158;2022-10-15T12:38:55;100380.63;;;15.41;100.00
65758;BME280;52495;52.208;5.158;2022-10-15T12:41:22;100385.75;;;15.43;100.00
65758;BME280;52495;52.208;5.158;2022-10-15T12:44:03;100385.09;;;15.38;100.00
65758;BME280;52495;52.208;5.158;2022-10-15T12:46:34;100383.44;;;15.37;100.00
65758;BME280;52495;52.208;5.158;2022-10-15T12:49:01;100385.97;;;15.38;100.00
65758;BME280;52495;52.208;5.158;2022-10-15T12:51:49;100393.75;;;15.38;100.00
65758;BME280;52495;52.208;5.158;2022-10-15T12:54:32;100393.63;;;15.41;100.00
65758;BME280;52495;52.208;5.158;2022-10-15T12:57:00;100386.53;;;15.45;100.00
65758;BME280;52495;52.208;5.158;2022-10-15T12:59:29;100378.84;;;15.42;100.00
65758;BME280;52495;52.208;5.158;2022-10-15T13:02:00;100389.03;;;15.46;100.00
65758;BME280;52495;52.208;5.158;2022-10-15T13:04:35;100391.59;;;15.48;100.00
65758;BME280;52495;52.208;5.158;2022-10-15T13:07:05;100393.06;;;15.54;100.00
65758;BME280;52495;52.208;5.158;2022-10-15T13:09:32;100390.38;;;15.55;100.00